»·PEaware :: N480ME KVBG-KRAL

N480ME :: KVBG-KRAL

FLIGHT INFORMATION

Flight Status: Arrived
Operator: Privately registered:
United States
More flights under this callsign
Pilot: Alan J. (5709)
Aircraft: MITSUBISHI MU-2 MARQUISE
(MU2)
More flights by this aircraft type
Origin: KVBG Vandenberg AFB
United States
Destination: KRAL Riverside Mun
United States
More flights between these airports :: More routes between these airports
Route: +FIM V186 PDZ
File this flight plan on PilotEdge
Remarks:
Altitude:
(Current/Filed)
0ft
Speed:
(Current/Filed)
0kts
Departed: 31-Jul-15 08:49 PM
Arrived: 31-Jul-15 09:33 PM
Distance/Time
Traveled:
163nm/0:44
Distance/Time
To Go:
Arrived

Flight Plot

Page will automatically refresh every two minutes.

Flight plan parsing failed; only flown route is shown


Map Options




Map Legend


Flown Route
Filed Route
Departure Airport
Arrival Airport
Navaid (VOR, NDB)
Fix

Horizontal Profiles

Position Reports

Time Latitude Longitude Heading Altitude Ground
Speed
31-Jul-15 20:59 34.796921 -120.548760 114 9097ft 179kts
31-Jul-15 21:00 34.772695 -120.485944 116 9090ft 224kts
31-Jul-15 21:01 34.744732 -120.425446 117 9585ft 218kts
31-Jul-15 21:02 34.717608 -120.359749 119 10223ft 214kts
31-Jul-15 21:03 34.688982 -120.297351 115 11336ft 208kts
31-Jul-15 21:04 34.670181 -120.225807 106 11568ft 238kts
31-Jul-15 21:05 34.649417 -120.148134 107 11529ft 246kts
31-Jul-15 21:06 34.624543 -120.069656 115 11603ft 251kts
31-Jul-15 21:07 34.591230 -119.994210 121 11589ft 254kts
31-Jul-15 21:08 34.561220 -119.917235 107 11503ft 254kts
31-Jul-15 21:09 34.535254 -119.837760 118 11499ft 252kts
31-Jul-15 21:10 34.508259 -119.759599 105 11560ft 252kts
31-Jul-15 21:11 34.494244 -119.675616 100 11506ft 255kts
31-Jul-15 21:12 34.480812 -119.591496 104 11546ft 253kts
31-Jul-15 21:13 34.465527 -119.508113 103 11563ft 253kts
31-Jul-15 21:14 34.453845 -119.423844 97 11584ft 254kts
31-Jul-15 21:15 34.441998 -119.339166 102 11583ft 255kts
31-Jul-15 21:16 34.427084 -119.254982 103 11584ft 255kts
31-Jul-15 21:17 34.412646 -119.169665 102 11566ft 257kts
31-Jul-15 21:18 34.393358 -119.086652 104 11585ft 256kts
31-Jul-15 21:19 34.377889 -119.000957 104 11566ft 258kts
31-Jul-15 21:20 34.364063 -118.916693 101 11253ft 248kts
31-Jul-15 21:21 34.343813 -118.834697 116 9684ft 254kts
31-Jul-15 21:22 34.314612 -118.754538 106 7981ft 265kts
31-Jul-15 21:23 34.286780 -118.672544 117 6240ft 262kts
31-Jul-15 21:24 34.258648 -118.596303 111 5982ft 225kts
31-Jul-15 21:25 34.236735 -118.526521 112 6000ft 220kts
31-Jul-15 21:26 34.211839 -118.458786 110 5994ft 219kts
31-Jul-15 21:27 34.190344 -118.389489 111 6017ft 219kts
31-Jul-15 21:28 34.163254 -118.321755 115 5967ft 227kts
31-Jul-15 21:29 34.143338 -118.250671 107 5990ft 220kts
31-Jul-15 21:30 34.120069 -118.181295 115 6051ft 223kts
31-Jul-15 21:31 34.094119 -118.111630 113 5955ft 227kts
31-Jul-15 21:32 34.067899 -118.043373 116 4845ft 223kts
31-Jul-15 21:33 34.042174 -117.976927 114 4107ft 202kts
31-Jul-15 21:34 34.021128 -117.916087 113 3912ft 185kts
31-Jul-15 21:35 34.007747 -117.867449 110 4028ft 181kts
31-Jul-15 21:36 33.988202 -117.810953 114 4004ft 183kts
31-Jul-15 21:37 33.975674 -117.752823 100 3895ft 174kts
31-Jul-15 21:38 33.963945 -117.696391 98 4055ft 178kts
31-Jul-15 21:39 33.963522 -117.639272 88 3484ft 156kts
31-Jul-15 21:40 33.963985 -117.592164 92 3527ft 131kts
31-Jul-15 21:41 33.960760 -117.548894 102 2697ft 123kts
31-Jul-15 21:42 33.959649 -117.509274 82 1793ft 120kts
31-Jul-15 21:43 33.957642 -117.471292 100 1097ft 113kts
31-Jul-15 21:44 33.951549 -117.439834 102 820ft 20kts
31-Jul-15 21:45 33.950963 -117.439329 193 820ft 0kts
31-Jul-15 21:46 33.950934 -117.439338 193 820ft 0kts
31-Jul-15 21:47 33.950362 -117.440644 276 820ft 8kts
31-Jul-15 21:48 33.950912 -117.442860 281 820ft 3kts
31-Jul-15 21:49 33.950435 -117.443205 194 820ft 0kts
31-Jul-15 21:50 33.950435 -117.443205 194 820ft 0kts
31-Jul-15 21:51 33.950435 -117.443205 194 820ft 0kts
31-Jul-15 21:52 33.950435 -117.443205 194 820ft 0kts
31-Jul-15 21:53 33.950435 -117.443205 194 822ft 0kts
31-Jul-15 21:54 33.950435 -117.443205 194 822ft 0kts
31-Jul-15 21:55 33.950435 -117.443205 194 821ft 0kts
31-Jul-15 21:56 33.950435 -117.443205 194 821ft 0kts
31-Jul-15 21:57 33.950435 -117.443205 194 821ft 0kts
31-Jul-15 21:58 33.950435 -117.443205 194 821ft 0kts
31-Jul-15 21:59 33.950435 -117.443205 194 821ft 0kts

Navigation Log

Ident Type
Flight plan parsing failed, navigation log unavailable